Nevada Mass, Nevada
Current Conditions -  °F | °C
As of 1:56 AM on Monday 22 Dec 2014 (Local Time) from KWMC Reporting Station
Overcast Overcast  
Wind Chill: 50°   Ceiling: 4100
Heat Index: 50°   Visibility: 10mi
Dew Point: 39°   Wind: 14mph
Humidity: 66%   Direction: 230°SW
Pressure: 30.17"   Gusts: NA
Location:  40.601°N, 117.984°W
Report Text: KWMC 220956Z AUTO 23012KT 10SM BKN041 OVC049 10/04 A3017 RMK AO2 SLP199 T01000039
Loading
Personal Weather Stations






























Interactive Weather Map New forecast layout! Learn more

10-Day Weather Forecast

Advertisements
Track Severe Weather on mobile